createdAt,value
2024-02-26T00:00:14.755Z,11.57
2024-02-26T00:05:13.689Z,11.38
2024-02-26T00:10:12.656Z,10.88
2024-02-26T00:15:12.088Z,12.15
2024-02-26T00:20:12.487Z,11.25
2024-02-26T00:25:13.795Z,10.82
2024-02-26T00:30:13.458Z,10.63
2024-02-26T00:35:12.674Z,9.90
2024-02-26T00:40:11.776Z,11.38
2024-02-26T00:45:10.608Z,10.05
2024-02-26T00:50:10.725Z,11.93
2024-02-26T00:55:09.898Z,10.48
2024-02-26T01:00:12.333Z,10.30
2024-02-26T01:05:11.536Z,10.15
2024-02-26T01:10:10.588Z,10.60
2024-02-26T01:15:09.893Z,10.70
2024-02-26T01:20:10.303Z,10.85
2024-02-26T01:25:10.695Z,11.15
2024-02-26T01:30:10.075Z,9.77
2024-02-26T01:35:11.457Z,10.35
2024-02-26T01:40:11.082Z,10.55
2024-02-26T01:45:22.121Z,10.98
2024-02-26T01:50:23.282Z,9.32
2024-02-26T01:55:24.964Z,11.02
2024-02-26T02:00:24.196Z,10.60
2024-02-26T02:05:23.718Z,10.57
2024-02-26T02:10:26.929Z,10.30
2024-02-26T02:15:26.115Z,10.18
2024-02-26T02:20:34.279Z,10.05
2024-02-26T02:25:33.124Z,9.95
2024-02-26T02:30:34.309Z,10.52
2024-02-26T02:35:33.525Z,9.23
2024-02-26T02:40:32.351Z,9.63
2024-02-26T02:45:31.712Z,10.10
2024-02-26T02:50:30.599Z,9.68
2024-02-26T02:55:29.500Z,9.55
2024-02-26T03:00:28.485Z,9.05
2024-02-26T03:05:27.504Z,9.70
2024-02-26T03:10:26.365Z,9.60
2024-02-26T03:15:25.291Z,10.25
2024-02-26T03:20:24.478Z,9.52
2024-02-26T03:25:23.292Z,9.70
2024-02-26T03:30:22.216Z,10.15
2024-02-26T03:35:21.069Z,9.73
2024-02-26T03:40:20.741Z,9.90
2024-02-26T03:45:19.665Z,9.70
2024-02-26T03:50:18.610Z,9.40
2024-02-26T03:55:22.113Z,9.63
2024-02-26T04:00:23.232Z,8.63
2024-02-26T04:05:22.468Z,9.27
2024-02-26T04:10:21.593Z,8.65
2024-02-26T04:15:20.477Z,9.20
2024-02-26T04:20:19.486Z,9.15
2024-02-26T04:25:18.364Z,9.73
2024-02-26T04:30:18.411Z,9.48
2024-02-26T04:35:17.477Z,9.00
2024-02-26T04:40:16.299Z,8.30
2024-02-26T04:45:15.311Z,8.98
2024-02-26T04:50:14.294Z,9.43
2024-02-26T04:55:13.375Z,9.15
2024-02-26T05:00:13.121Z,8.43
2024-02-26T05:05:13.928Z,8.85
2024-02-26T05:10:13.102Z,9.18
2024-02-26T05:15:12.584Z,8.45
2024-02-26T05:20:11.659Z,7.68
2024-02-26T05:25:10.827Z,9.20
2024-02-26T05:30:10.076Z,7.82
2024-02-26T05:35:09.830Z,8.95
2024-02-26T05:40:09.087Z,5.55
2024-02-26T05:45:08.696Z,10.32
2024-02-26T05:50:08.027Z,7.63
2024-02-26T05:55:07.525Z,7.22
2024-02-26T06:00:07.221Z,7.10
2024-02-26T06:05:12.325Z,6.93
2024-02-26T06:10:11.721Z,7.22
2024-02-26T06:15:41.862Z,6.53
2024-02-26T06:20:42.904Z,6.68
2024-02-26T06:25:43.692Z,6.97
2024-02-26T06:30:42.805Z,7.18
2024-02-26T06:35:41.967Z,6.70
2024-02-26T06:40:41.258Z,7.32
2024-02-26T06:45:40.458Z,6.60
2024-02-26T06:50:39.245Z,6.40
2024-02-26T06:55:41.384Z,6.65
2024-02-26T07:00:40.237Z,6.93
2024-02-26T07:05:39.461Z,7.72
2024-02-26T07:10:38.531Z,6.38
2024-02-26T07:15:37.471Z,6.65
2024-02-26T07:20:36.460Z,6.97
2024-02-26T07:25:35.243Z,5.82
2024-02-26T07:30:34.082Z,6.32
2024-02-26T07:35:34.588Z,5.75
2024-02-26T07:40:33.440Z,6.15
2024-02-26T07:45:32.556Z,6.30
2024-02-26T07:50:31.667Z,6.72
2024-02-26T07:55:30.479Z,6.13
2024-02-26T08:00:29.771Z,5.70
2024-02-26T08:05:29.568Z,6.72
2024-02-26T08:10:31.316Z,5.93
2024-02-26T08:15:36.095Z,6.15
2024-02-26T08:20:35.068Z,5.38
2024-02-26T08:25:33.931Z,6.38
2024-02-26T08:30:32.861Z,6.60
2024-02-26T08:35:31.840Z,6.78
2024-02-26T08:40:30.742Z,6.10
2024-02-26T08:45:30.556Z,6.53
2024-02-26T08:50:29.766Z,7.38
2024-02-26T08:55:28.632Z,6.90
2024-02-26T09:00:27.552Z,6.15
2024-02-26T09:05:26.678Z,6.95
2024-02-26T09:10:25.554Z,7.13
2024-02-26T09:15:25.669Z,8.38
2024-02-26T09:20:25.037Z,7.47
2024-02-26T09:25:23.888Z,6.95
2024-02-26T09:30:22.988Z,6.32
2024-02-26T09:35:22.669Z,6.93
2024-02-26T09:40:21.811Z,6.35
2024-02-26T09:45:23.839Z,7.22
2024-02-26T09:50:26.507Z,6.55
2024-02-26T09:55:25.410Z,6.80
2024-02-26T10:00:26.531Z,6.13
2024-02-26T10:05:26.227Z,6.30
2024-02-26T10:10:25.842Z,6.40
2024-02-26T10:15:24.787Z,6.90
2024-02-26T10:20:25.081Z,6.75
2024-02-26T10:25:24.078Z,6.00
2024-02-26T10:30:24.384Z,6.60
2024-02-26T10:35:24.023Z,6.30
2024-02-26T10:40:23.122Z,6.97
2024-02-26T10:45:21.997Z,6.85
2024-02-26T10:50:21.071Z,7.05
2024-02-26T10:55:22.915Z,6.40
2024-02-26T11:00:22.030Z,6.70
2024-02-26T11:05:21.479Z,7.38
2024-02-26T11:10:20.842Z,6.88
2024-02-26T11:15:21.037Z,6.25
2024-02-26T11:20:20.994Z,6.10
2024-02-26T11:25:20.546Z,6.55
2024-02-26T11:30:20.400Z,6.43
2024-02-26T11:35:20.269Z,5.95
2024-02-26T11:40:19.477Z,7.68
2024-02-26T11:45:48.681Z,6.45
2024-02-26T11:50:52.429Z,6.65
2024-02-26T11:56:28.346Z,5.82
2024-02-26T12:01:42.677Z,6.45
2024-02-26T12:06:47.474Z,7.82
2024-02-26T12:11:46.524Z,6.05
2024-02-26T12:16:46.614Z,6.07
2024-02-26T12:21:45.848Z,6.18
2024-02-26T12:26:45.084Z,5.93
2024-02-26T12:31:44.637Z,6.32
2024-02-26T12:36:43.637Z,5.25
2024-02-26T12:41:45.772Z,5.85
2024-02-26T12:46:44.891Z,5.70
2024-02-26T12:51:45.616Z,5.70
2024-02-26T12:56:45.043Z,5.13
2024-02-26T13:01:44.086Z,5.38
2024-02-26T13:06:43.230Z,5.85
2024-02-26T13:11:42.235Z,6.95
2024-02-26T13:16:41.107Z,5.90
2024-02-26T13:21:40.048Z,7.10
2024-02-26T13:26:38.928Z,6.93
2024-02-26T13:31:44.793Z,6.53
2024-02-26T13:36:44.269Z,5.70
2024-02-26T13:41:45.004Z,5.78
2024-02-26T13:46:43.986Z,6.60
2024-02-26T13:51:43.416Z,6.32
2024-02-26T13:56:43.599Z,6.15
2024-02-26T14:01:43.577Z,6.28
2024-02-26T14:06:42.902Z,5.90
2024-02-26T14:11:43.684Z,6.00
2024-02-26T14:16:42.803Z,5.63
2024-02-26T14:21:41.605Z,6.00
2024-02-26T14:26:41.748Z,5.45
2024-02-26T14:31:40.773Z,5.55
2024-02-26T14:36:39.800Z,5.95
2024-02-26T14:41:38.570Z,5.40
2024-02-26T14:46:37.908Z,6.22
2024-02-26T14:51:36.940Z,6.35
2024-02-26T14:56:35.859Z,5.97
2024-02-26T15:01:34.767Z,6.13
2024-02-26T15:06:33.796Z,5.65
2024-02-26T15:11:32.910Z,6.38
2024-02-26T15:16:32.104Z,5.10
2024-02-26T15:21:31.039Z,5.38
2024-02-26T15:26:29.950Z,4.80
2024-02-26T15:31:28.870Z,5.05
2024-02-26T15:36:27.780Z,4.80
2024-02-26T15:41:26.677Z,6.38
2024-02-26T15:46:25.864Z,6.18
2024-02-26T15:51:27.901Z,6.30
2024-02-26T15:56:27.293Z,6.55
2024-02-26T16:01:28.179Z,5.80
2024-02-26T16:06:34.626Z,7.07
2024-02-26T16:11:33.827Z,6.03
2024-02-26T16:16:35.737Z,5.63
2024-02-26T16:21:34.847Z,5.80
2024-02-26T16:26:33.846Z,5.95
2024-02-26T16:31:32.902Z,5.95
2024-02-26T16:36:32.156Z,5.97
2024-02-26T16:41:31.086Z,6.90
2024-02-26T16:46:30.313Z,5.70
2024-02-26T16:51:29.304Z,5.88
2024-02-26T16:56:28.171Z,5.65
2024-02-26T17:01:26.994Z,6.07
2024-02-26T17:06:25.899Z,6.13
2024-02-26T17:11:25.308Z,6.35
2024-02-26T17:16:24.357Z,5.97
2024-02-26T17:21:24.619Z,6.65
2024-02-26T17:26:25.561Z,5.63
2024-02-26T17:31:26.202Z,6.53
2024-02-26T17:36:25.371Z,7.43
2024-02-26T17:41:24.338Z,7.10
2024-02-26T17:46:23.166Z,6.72
2024-02-26T17:51:23.351Z,7.20
2024-02-26T17:56:22.187Z,7.97
2024-02-26T18:01:21.085Z,7.85
2024-02-26T18:06:20.460Z,8.07
2024-02-26T18:11:19.737Z,8.07
2024-02-26T18:16:18.655Z,7.82
2024-02-26T18:21:19.283Z,7.13
2024-02-26T18:26:22.670Z,7.20
2024-02-26T18:31:21.903Z,8.20
2024-02-26T18:36:26.618Z,10.07
2024-02-26T18:41:25.688Z,10.25
2024-02-26T18:46:24.504Z,9.68
2024-02-26T18:51:23.430Z,11.18
2024-02-26T18:56:24.140Z,10.68
2024-02-26T19:01:23.137Z,11.02
2024-02-26T19:06:22.092Z,10.20
2024-02-26T19:11:22.020Z,10.10
2024-02-26T19:16:21.036Z,10.45
2024-02-26T19:21:21.291Z,9.88
2024-02-26T19:26:20.337Z,9.38
2024-02-26T19:31:19.247Z,9.77
2024-02-26T19:36:20.053Z,9.07
2024-02-26T19:41:19.153Z,9.95
2024-02-26T19:46:18.426Z,10.20
2024-02-26T19:51:20.381Z,9.75
2024-02-26T19:56:20.390Z,10.60
2024-02-26T20:01:19.440Z,4.35
2024-02-26T20:06:18.644Z,8.63
2024-02-26T20:11:19.193Z,9.68
2024-02-26T20:16:18.534Z,11.43
2024-02-26T20:21:17.450Z,12.02
2024-02-26T20:26:16.312Z,12.70
2024-02-26T20:31:15.202Z,11.98
2024-02-26T20:36:14.993Z,11.90
2024-02-26T20:41:16.444Z,11.45
2024-02-26T20:46:15.399Z,10.85
2024-02-26T20:51:14.429Z,11.95
2024-02-26T20:56:14.135Z,11.52
2024-02-26T21:01:13.025Z,12.35
2024-02-26T21:06:11.987Z,11.27
2024-02-26T21:11:11.113Z,12.10
2024-02-26T21:16:10.036Z,11.93
2024-02-26T21:21:09.839Z,11.57
2024-02-26T21:26:09.696Z,12.25
2024-02-26T21:31:10.257Z,11.48
2024-02-26T21:36:09.255Z,11.27
2024-02-26T21:41:08.073Z,11.25
2024-02-26T21:46:07.471Z,11.75
2024-02-26T21:51:07.208Z,12.43
2024-02-26T21:56:08.518Z,13.27
2024-02-26T22:01:07.428Z,11.95
2024-02-26T22:06:06.510Z,12.10
2024-02-26T22:11:05.788Z,12.85
2024-02-26T22:16:04.929Z,11.75
2024-02-26T22:21:05.380Z,11.35
2024-02-26T22:26:05.091Z,12.60
2024-02-26T22:31:05.434Z,12.73
2024-02-26T22:36:04.688Z,12.27
2024-02-26T22:41:06.092Z,13.20
2024-02-26T22:46:05.264Z,12.15
2024-02-26T22:51:04.234Z,12.75
2024-02-26T22:56:03.168Z,12.98
2024-02-26T23:01:02.085Z,11.63
2024-02-26T23:06:01.148Z,11.75
2024-02-26T23:11:02.020Z,13.00
2024-02-26T23:16:00.862Z,11.88
2024-02-26T23:20:59.800Z,11.40
2024-02-26T23:25:58.628Z,13.43
2024-02-26T23:30:57.802Z,11.90
2024-02-26T23:35:56.973Z,11.57
2024-02-26T23:40:56.996Z,11.95
2024-02-26T23:45:55.985Z,13.00
2024-02-26T23:50:54.882Z,13.82
2024-02-26T23:55:53.710Z,14.95
